Time;durP1;ratioP1;P1;durP2;ratioP2;P2;SDS_P1;SDS_P2;PMS_P1;PMS_P2;Temp;Humidity;BMP_temperature;BMP_pressure;BME280_temperature;BME280_humidity;BME280_pressure;Samples;Min_cycle;Max_cycle;Signal;HPM_P1;HPM_P2
2022/12/31 00:02:03;;;;;;;3.55;1.40;;;11.20;99.90;;;;;;5109770;28;20038;-47
2022/12/31 00:04:29;;;;;;;1.92;1.20;;;11.20;99.90;;;;;;5110578;28;20493;-48
2022/12/31 00:06:54;;;;;;;2.03;1.20;;;11.10;99.90;;;;;;5110245;28;20438;-48
2022/12/31 00:09:20;;;;;;;4.13;1.40;;;11.20;99.90;;;;;;5110137;28;20493;-47
2022/12/31 00:11:46;;;;;;;1.70;1.30;;;11.10;99.90;;;;;;5109986;28;20212;-46
2022/12/31 00:14:11;;;;;;;2.00;1.20;;;11.20;99.90;;;;;;5110296;28;20102;-47
2022/12/31 00:16:39;;;;;;;1.45;1.20;;;11.20;99.90;;;;;;5110363;28;20435;-49
2022/12/31 00:19:08;;;;;;;2.22;1.30;;;11.20;99.90;;;;;;5110158;28;20493;-48
2022/12/31 00:21:34;;;;;;;3.35;1.42;;;11.20;99.90;;;;;;5109979;28;20102;-47
2022/12/31 00:24:00;;;;;;;2.05;1.40;;;11.20;99.90;;;;;;5109430;28;20020;-47
2022/12/31 00:26:28;;;;;;;2.13;1.20;;;11.20;99.90;;;;;;5110043;28;20020;-47
2022/12/31 00:28:55;;;;;;;2.90;1.45;;;11.20;99.90;;;;;;5109805;28;20024;-47
2022/12/31 00:31:23;;;;;;;1.75;1.20;;;11.20;99.90;;;;;;5109831;28;20035;-47
2022/12/31 00:33:49;;;;;;;1.55;0.98;;;11.20;99.90;;;;;;5098576;27;20024;-46
2022/12/31 00:36:20;;;;;;;1.05;0.95;;;11.20;99.90;;;;;;5130282;27;20055;-49
2022/12/31 00:38:48;;;;;;;1.15;1.02;;;11.20;99.90;;;;;;5130804;27;20023;-50
2022/12/31 00:41:14;;;;;;;2.65;1.00;;;11.20;99.90;;;;;;5130228;27;20019;-48
2022/12/31 00:43:41;;;;;;;4.22;1.55;;;11.20;99.90;;;;;;5111188;27;20022;-47
2022/12/31 00:46:10;;;;;;;1.63;0.90;;;11.30;99.90;;;;;;5130450;27;20019;-47
2022/12/31 00:48:36;;;;;;;2.13;1.00;;;11.40;99.90;;;;;;5130214;27;20032;-48
2022/12/31 00:51:05;;;;;;;1.10;0.98;;;11.40;99.90;;;;;;5130160;27;20088;-47
2022/12/31 00:53:31;;;;;;;2.35;1.23;;;11.30;99.90;;;;;;5111090;27;20054;-46
2022/12/31 00:56:00;;;;;;;2.90;1.25;;;11.30;99.90;;;;;;5110410;27;20409;-46
2022/12/31 00:58:26;;;;;;;1.42;0.85;;;11.30;99.90;;;;;;5129421;27;20019;-47
2022/12/31 01:00:52;;;;;;;0.95;0.93;;;11.40;99.90;;;;;;5129671;27;20072;-47
2022/12/31 01:03:18;;;;;;;1.38;0.85;;;11.30;99.90;;;;;;5128675;28;20408;-47
2022/12/31 01:05:43;;;;;;;2.88;0.90;;;11.40;99.90;;;;;;5120659;28;20018;-47
2022/12/31 01:08:09;;;;;;;1.25;0.90;;;11.40;99.90;;;;;;5130077;28;20023;-50
2022/12/31 01:13:18;;;;;;;1.70;1.60;;;11.40;99.90;;;;;;5129427;28;20450;-46
2022/12/31 01:15:44;;;;;;;1.10;1.00;;;11.40;99.90;;;;;;5130076;28;20028;-50
2022/12/31 01:18:10;;;;;;;1.13;1.08;;;11.50;99.90;;;;;;5129777;28;20027;-50
2022/12/31 01:20:40;;;;;;;0.95;0.90;;;11.40;99.90;;;;;;5129842;28;20080;-50
2022/12/31 01:23:07;;;;;;;3.90;1.33;;;11.40;99.90;;;;;;5129378;28;20389;-47
2022/12/31 01:25:38;;;;;;;2.33;0.80;;;11.40;99.90;;;;;;5127058;28;20118;-46
2022/12/31 01:28:04;;;;;;;;;;;11.60;99.90;;;;;;5123511;28;20023;-46
2022/12/31 01:30:29;;;;;;;2.13;1.10;;;11.60;99.90;;;;;;5129754;28;19938;-46
2022/12/31 01:32:55;;;;;;;1.00;0.82;;;11.60;99.90;;;;;;5128302;28;20054;-49
2022/12/31 01:35:21;;;;;;;0.93;0.80;;;11.70;99.90;;;;;;5108985;28;20028;-48
2022/12/31 01:37:47;;;;;;;0.82;0.80;;;11.80;99.90;;;;;;5090840;28;20031;-46
2022/12/31 01:40:12;;;;;;;1.10;1.00;;;11.80;99.90;;;;;;5107745;28;20552;-49
2022/12/31 01:42:38;;;;;;;0.65;0.60;;;11.80;99.90;;;;;;5122562;28;20031;-48
2022/12/31 01:45:09;;;;;;;0.60;0.60;;;11.80;99.90;;;;;;5128185;28;20581;-46
2022/12/31 01:47:41;;;;;;;2.40;0.80;;;11.80;99.90;;;;;;5129741;28;20729;-46
2022/12/31 01:50:17;;;;;;;1.92;0.90;;;11.90;99.90;;;;;;5129625;28;20401;-46
2022/12/31 01:52:49;;;;;;;1.42;0.90;;;11.90;99.90;;;;;;5129299;28;20502;-47
2022/12/31 01:55:23;;;;;;;1.02;0.95;;;12.00;99.90;;;;;;5129596;28;20027;-46
2022/12/31 01:57:51;;;;;;;3.22;1.20;;;12.00;99.90;;;;;;5110310;28;20019;-47
2022/12/31 02:00:17;;;;;;;0.82;0.82;;;11.90;99.90;;;;;;5108760;28;20040;-47
2022/12/31 02:02:43;;;;;;;1.48;1.20;;;11.90;99.90;;;;;;5108395;28;20441;-47
2022/12/31 02:05:17;;;;;;;1.40;0.80;;;11.90;99.90;;;;;;5108434;28;20024;-46
2022/12/31 02:07:44;;;;;;;1.48;1.10;;;12.00;99.90;;;;;;5109039;28;20405;-48
2022/12/31 02:10:10;;;;;;;2.30;0.80;;;12.00;99.90;;;;;;5111810;28;20054;-47
2022/12/31 02:12:35;;;;;;;1.48;1.13;;;12.00;99.90;;;;;;5111739;28;20754;-46
2022/12/31 02:15:01;;;;;;;0.90;0.90;;;12.10;99.90;;;;;;5112550;28;20481;-47
2022/12/31 02:17:41;;;;;;;0.77;0.77;;;12.10;99.90;;;;;;5112704;28;20031;-46
2022/12/31 02:20:25;;;;;;;0.80;0.77;;;12.00;99.90;;;;;;5112055;28;20023;-47
2022/12/31 02:23:16;;;;;;;1.27;1.00;;;12.20;99.90;;;;;;5111944;28;20071;-47
2022/12/31 02:26:39;;;;;;;0.80;0.80;;;12.20;99.90;;;;;;5112267;28;20558;-46
2022/12/31 02:29:19;;;;;;;2.17;1.17;;;12.20;99.90;;;;;;5008854;28;20022;-45
2022/12/31 02:31:54;;;;;;;1.00;0.90;;;12.20;99.90;;;;;;5008981;28;20124;-47
2022/12/31 02:34:36;;;;;;;1.25;0.90;;;12.20;99.90;;;;;;5085994;28;20038;-46
2022/12/31 02:37:05;;;;;;;0.88;0.80;;;12.20;99.90;;;;;;5126291;27;20019;-47
2022/12/31 02:39:32;;;;;;;0.77;0.77;;;12.20;99.90;;;;;;5132306;27;20045;-46
2022/12/31 02:41:58;;;;;;;0.88;0.80;;;12.10;99.90;;;;;;5131770;27;20041;-46
2022/12/31 02:44:30;;;;;;;0.98;0.80;;;12.10;99.90;;;;;;5132574;27;20034;-47
2022/12/31 02:47:09;;;;;;;0.98;0.70;;;12.20;99.90;;;;;;5132711;27;20537;-49
2022/12/31 02:49:40;;;;;;;0.60;0.60;;;12.10;99.90;;;;;;5132522;27;20027;-48
2022/12/31 02:52:15;;;;;;;1.08;0.80;;;12.10;99.90;;;;;;5132171;27;20423;-47
2022/12/31 02:55:09;;;;;;;0.60;0.60;;;12.30;99.90;;;;;;5132262;27;20027;-47
2022/12/31 02:58:01;;;;;;;1.00;0.90;;;12.30;99.90;;;;;;5087735;27;20043;-46
2022/12/31 03:03:13;;;;;;;0.90;0.60;;;12.30;99.90;;;;;;5129471;27;20026;-48
2022/12/31 03:05:42;;;;;;;0.73;0.73;;;12.30;99.90;;;;;;5111149;28;20031;-46
2022/12/31 03:08:08;;;;;;;0.90;0.75;;;12.40;99.90;;;;;;5093188;28;20080;-46
2022/12/31 03:10:34;;;;;;;0.65;0.60;;;12.50;99.90;;;;;;5111591;28;20038;-47
2022/12/31 03:13:00;;;;;;;0.90;0.80;;;12.50;99.90;;;;;;5110764;28;20036;-47
2022/12/31 03:15:31;;;;;;;1.20;0.90;;;12.50;99.90;;;;;;5111783;28;20620;-46
2022/12/31 03:18:13;;;;;;;1.48;0.80;;;12.50;99.90;;;;;;5092969;28;20020;-46
2022/12/31 03:23:33;;;;;;;1.10;0.70;;;12.60;99.90;;;;;;5110843;28;20035;-46
2022/12/31 03:25:59;;;;;;;0.90;0.90;;;12.60;99.90;;;;;;5111217;28;20024;-46
2022/12/31 03:28:27;;;;;;;1.02;0.90;;;12.70;99.90;;;;;;5110962;28;20055;-48
2022/12/31 03:30:58;;;;;;;1.88;1.00;;;12.70;99.90;;;;;;5111194;28;20026;-48
2022/12/31 03:33:28;;;;;;;1.13;0.90;;;12.70;99.90;;;;;;5110560;28;20047;-47
2022/12/31 03:35:54;;;;;;;1.03;0.90;;;12.80;99.90;;;;;;5110722;28;20020;-47
2022/12/31 03:38:19;;;;;;;0.80;0.70;;;12.80;99.90;;;;;;5110983;28;20724;-47
2022/12/31 03:40:48;;;;;;;1.10;0.60;;;12.80;99.90;;;;;;5111060;28;20407;-48
2022/12/31 03:43:14;;;;;;;0.70;0.70;;;12.70;99.90;;;;;;5110315;28;20020;-47
2022/12/31 03:45:39;;;;;;;0.85;0.70;;;12.70;99.90;;;;;;5108688;28;20385;-48
2022/12/31 03:48:07;;;;;;;0.60;0.60;;;12.80;99.90;;;;;;5092447;28;20020;-47
2022/12/31 03:50:33;;;;;;;2.00;0.90;;;12.80;99.90;;;;;;5110798;28;20447;-47
2022/12/31 03:52:59;;;;;;;1.38;0.90;;;12.70;99.90;;;;;;5091909;28;20030;-49
2022/12/31 03:55:25;;;;;;;2.05;0.82;;;12.70;99.90;;;;;;5111015;28;20386;-48
2022/12/31 03:57:51;;;;;;;0.80;0.80;;;12.60;99.90;;;;;;5092186;28;20035;-47
2022/12/31 04:00:18;;;;;;;1.80;0.70;;;12.50;99.90;;;;;;5110626;28;20027;-47
2022/12/31 04:02:45;;;;;;;0.93;0.60;;;12.50;99.90;;;;;;5110016;28;20032;-47
2022/12/31 04:05:11;;;;;;;0.73;0.70;;;12.40;99.90;;;;;;5109959;28;20012;-47
2022/12/31 04:07:37;;;;;;;2.83;0.70;;;12.30;99.90;;;;;;5110234;28;20030;-53
2022/12/31 04:10:05;;;;;;;1.58;0.80;;;12.20;99.90;;;;;;5110447;28;20545;-49
2022/12/31 04:12:30;;;;;;;1.83;1.10;;;12.10;99.90;;;;;;5108421;28;20050;-49
2022/12/31 04:14:56;;;;;;;1.67;1.00;;;12.10;99.90;;;;;;5110226;28;20032;-46
2022/12/31 04:17:22;;;;;;;1.30;0.90;;;12.00;99.90;;;;;;5091839;28;20389;-47
2022/12/31 04:19:48;;;;;;;1.77;1.25;;;12.00;99.90;;;;;;5110055;28;20502;-47
2022/12/31 04:22:13;;;;;;;2.05;1.58;;;12.00;99.90;;;;;;5109659;28;20019;-47
2022/12/31 04:24:41;;;;;;;3.72;2.08;;;12.00;99.90;;;;;;5110021;28;20016;-46
2022/12/31 04:27:07;;;;;;;2.03;1.20;;;12.00;99.90;;;;;;5109871;28;20016;-48
2022/12/31 04:29:33;;;;;;;4.32;1.77;;;12.00;99.90;;;;;;5091952;28;20389;-47
2022/12/31 04:31:58;;;;;;;1.52;1.20;;;11.90;99.90;;;;;;5109521;28;20036;-47
2022/12/31 04:34:24;;;;;;;1.33;0.98;;;11.90;99.90;;;;;;5099962;27;20103;-47
2022/12/31 04:36:49;;;;;;;1.25;1.13;;;11.90;99.90;;;;;;5121937;27;20027;-47
2022/12/31 04:39:15;;;;;;;1.05;0.95;;;11.90;99.90;;;;;;5111796;27;20031;-48
2022/12/31 04:41:40;;;;;;;0.82;0.82;;;11.90;99.90;;;;;;5105015;27;20367;-47
2022/12/31 04:44:06;;;;;;;2.72;1.00;;;11.90;99.90;;;;;;5102911;27;20011;-46
2022/12/31 04:46:33;;;;;;;1.00;0.90;;;11.90;99.90;;;;;;5130398;27;20015;-46
2022/12/31 04:48:58;;;;;;;1.48;1.00;;;11.90;99.90;;;;;;5130359;27;20046;-47
2022/12/31 04:51:26;;;;;;;2.10;0.80;;;11.80;99.90;;;;;;5111642;28;20059;-48
2022/12/31 04:53:52;;;;;;;1.15;0.80;;;11.80;99.90;;;;;;5109142;28;20019;-48
2022/12/31 04:56:18;;;;;;;1.45;1.10;;;11.80;99.90;;;;;;5109437;28;20028;-48
2022/12/31 04:58:44;;;;;;;0.80;0.80;;;11.90;99.90;;;;;;5109438;28;20117;-51
2022/12/31 05:01:10;;;;;;;1.60;0.82;;;11.80;99.90;;;;;;5109437;28;20019;-53
2022/12/31 05:03:36;;;;;;;0.60;0.60;;;11.90;99.90;;;;;;5092580;28;20015;-50
2022/12/31 05:06:05;;;;;;;1.15;0.90;;;11.90;99.90;;;;;;5103506;28;20030;-49
2022/12/31 05:08:32;;;;;;;0.68;0.68;;;11.80;99.90;;;;;;5111767;28;20030;-48
2022/12/31 05:10:57;;;;;;;0.50;0.50;;;11.90;99.90;;;;;;5111569;28;20284;-48
2022/12/31 05:13:24;;;;;;;0.70;0.70;;;11.90;99.90;;;;;;5129164;28;20027;-48
2022/12/31 05:15:50;;;;;;;2.33;0.85;;;11.90;99.90;;;;;;5111437;28;20131;-49
2022/12/31 05:18:16;;;;;;;7.10;1.00;;;11.90;99.90;;;;;;5111381;28;20063;-50
2022/12/31 05:20:41;;;;;;;0.93;0.80;;;12.00;99.90;;;;;;5129702;28;20019;-50
2022/12/31 05:23:07;;;;;;;0.60;0.60;;;12.00;99.90;;;;;;5122854;28;20019;-50
2022/12/31 05:25:33;;;;;;;1.10;1.00;;;12.00;99.90;;;;;;5110729;28;20068;-49
2022/12/31 05:27:58;;;;;;;1.50;0.70;;;12.10;99.90;;;;;;5091299;28;20022;-48
2022/12/31 05:30:24;;;;;;;0.75;0.73;;;12.20;99.90;;;;;;5090929;28;20024;-50
2022/12/31 05:32:50;;;;;;;2.30;0.77;;;12.20;99.90;;;;;;5108350;28;20034;-47
2022/12/31 05:35:16;;;;;;;1.50;0.63;;;12.30;99.90;;;;;;5118849;28;20019;-47
2022/12/31 05:37:41;;;;;;;1.35;0.70;;;12.30;99.90;;;;;;5117046;28;20519;-47
2022/12/31 05:40:08;;;;;;;2.42;0.77;;;12.30;99.90;;;;;;5117901;28;20115;-47
2022/12/31 05:42:33;;;;;;;0.88;0.77;;;12.40;99.90;;;;;;5116158;27;20501;-47
2022/12/31 05:44:59;;;;;;;3.13;0.90;;;12.40;99.90;;;;;;5132817;27;20096;-50
2022/12/31 05:47:24;;;;;;;1.15;1.08;;;12.40;99.90;;;;;;5115260;27;20168;-50
2022/12/31 05:49:50;;;;;;;0.60;0.60;;;12.50;99.90;;;;;;5133890;27;20307;-48
2022/12/31 05:52:16;;;;;;;2.65;0.90;;;12.50;99.90;;;;;;5114681;27;20050;-47
2022/12/31 05:54:42;;;;;;;3.03;0.93;;;12.50;99.90;;;;;;5110250;27;20550;-47
2022/12/31 05:57:08;;;;;;;1.38;0.95;;;12.60;99.90;;;;;;5125930;27;20019;-48
2022/12/31 05:59:34;;;;;;;0.80;0.80;;;12.60;99.90;;;;;;5134397;27;20369;-48
2022/12/31 06:01:59;;;;;;;1.38;0.93;;;12.70;99.90;;;;;;5133983;27;20056;-48
2022/12/31 06:04:25;;;;;;;4.60;1.30;;;12.70;99.90;;;;;;5132835;27;20023;-51
2022/12/31 06:06:51;;;;;;;3.50;0.93;;;12.70;99.90;;;;;;5095334;28;20023;-49
2022/12/31 06:09:17;;;;;;;3.05;0.90;;;12.60;99.90;;;;;;5113627;28;20051;-50
2022/12/31 06:11:43;;;;;;;1.35;0.80;;;12.50;99.90;;;;;;5095141;28;20089;-47
2022/12/31 06:14:09;;;;;;;0.90;0.57;;;12.50;99.90;;;;;;5113331;28;20024;-49
2022/12/31 06:16:35;;;;;;;0.70;0.70;;;12.50;99.90;;;;;;5113585;28;20363;-49
2022/12/31 06:19:01;;;;;;;0.80;0.70;;;12.40;99.90;;;;;;5113309;28;20058;-47
2022/12/31 06:21:26;;;;;;;0.60;0.60;;;12.30;99.90;;;;;;5120597;27;20184;-50
2022/12/31 06:23:52;;;;;;;1.05;0.70;;;12.30;99.90;;;;;;5132403;27;20090;-49
2022/12/31 06:26:18;;;;;;;0.95;0.75;;;12.30;99.90;;;;;;5121886;27;20537;-48
2022/12/31 06:28:43;;;;;;;0.95;0.85;;;12.30;99.90;;;;;;5132956;27;20023;-50
2022/12/31 06:31:12;;;;;;;0.75;0.75;;;12.20;99.90;;;;;;5115346;27;20015;-50
2022/12/31 06:33:38;;;;;;;0.88;0.88;;;12.20;99.90;;;;;;5131766;27;20486;-49
2022/12/31 06:36:06;;;;;;;3.25;2.40;;;12.20;99.90;;;;;;5125206;27;20023;-48
2022/12/31 06:38:35;;;;;;;1.35;1.25;;;12.10;99.90;;;;;;5120521;27;20069;-47
2022/12/31 06:41:05;;;;;;;1.30;1.20;;;12.10;99.90;;;;;;5112971;28;20027;-50
2022/12/31 06:43:31;;;;;;;;;;;12.10;99.90;;;;;;5112848;28;20036;-48
2022/12/31 06:46:04;;;;;;;1.40;1.30;;;12.10;99.90;;;;;;5094963;28;19912;-49
2022/12/31 06:48:30;;;;;;;2.90;1.30;;;12.00;99.90;;;;;;5113250;28;20016;-47
2022/12/31 06:50:55;;;;;;;1.90;1.70;;;12.10;99.90;;;;;;5112956;28;20032;-49
2022/12/31 06:53:21;;;;;;;2.67;1.60;;;12.00;99.90;;;;;;5112208;28;20020;-49
2022/12/31 06:55:49;;;;;;;1.30;1.20;;;12.00;99.90;;;;;;5094463;28;20473;-48
2022/12/31 06:58:16;;;;;;;1.40;1.30;;;12.00;99.90;;;;;;5112820;28;20019;-47
2022/12/31 07:00:58;;;;;;;1.70;1.60;;;12.00;99.90;;;;;;5101170;27;20130;-48
2022/12/31 07:03:26;;;;;;;1.95;1.60;;;12.00;99.90;;;;;;5114735;27;20392;-47
2022/12/31 07:06:00;;;;;;;2.55;2.20;;;11.90;99.90;;;;;;5124385;27;20043;-47
2022/12/31 07:08:47;;;;;;;3.00;2.70;;;11.90;99.90;;;;;;5130456;27;20012;-46
2022/12/31 07:11:27;;;;;;;1.70;1.60;;;11.90;99.90;;;;;;5127958;27;20039;-47
2022/12/31 07:14:28;;;;;;;2.13;1.60;;;11.90;99.90;;;;;;5132429;27;20015;-47
2022/12/31 07:17:16;;;;;;;;;;;11.90;99.90;;;;;;5093304;27;20465;-50
2022/12/31 07:20:06;;;;;;;3.03;1.90;;;11.90;99.90;;;;;;5131968;27;19986;-47
2022/12/31 07:22:32;;;;;;;1.55;1.42;;;11.80;99.90;;;;;;5122346;27;20121;-50
2022/12/31 07:24:58;;;;;;;1.48;1.38;;;11.80;99.90;;;;;;5102894;27;20070;-47
2022/12/31 07:27:41;;;;;;;1.67;1.33;;;11.80;99.90;;;;;;5121265;27;20531;-49
2022/12/31 07:30:21;;;;;;;1.40;1.30;;;11.80;99.90;;;;;;5122317;27;20058;-50
2022/12/31 07:33:09;;;;;;;1.60;1.40;;;11.80;99.90;;;;;;5118647;27;20058;-49
2022/12/31 07:35:47;;;;;;;1.30;1.20;;;11.70;99.90;;;;;;5119127;27;20058;-47
2022/12/31 07:38:46;;;;;;;2.50;1.80;;;11.60;99.90;;;;;;5117180;27;20019;-48
2022/12/31 07:41:30;;;;;;;1.52;1.17;;;11.60;99.90;;;;;;5119525;27;20110;-49
2022/12/31 07:44:24;;;;;;;2.33;1.10;;;11.60;99.90;;;;;;5131699;27;20094;-50
2022/12/31 07:46:57;;;;;;;1.88;1.30;;;11.60;99.90;;;;;;5132330;27;20118;-48
2022/12/31 07:49:24;;;;;;;1.85;1.40;;;11.60;99.90;;;;;;5132221;27;20393;-50
2022/12/31 07:51:50;;;;;;;2.10;1.60;;;11.60;99.90;;;;;;5114378;27;20055;-51
2022/12/31 07:54:16;;;;;;;2.28;1.40;;;11.60;99.90;;;;;;5092652;28;20019;-48
2022/12/31 07:56:43;;;;;;;2.15;1.40;;;11.50;99.90;;;;;;5097267;28;20104;-47
2022/12/31 07:59:27;;;;;;;1.75;1.45;;;11.60;99.90;;;;;;5102098;27;20027;-47
2022/12/31 08:02:03;;;;;;;1.83;1.50;;;11.60;99.90;;;;;;5117451;27;20023;-49
2022/12/31 08:04:54;;;;;;;2.53;1.27;;;11.50;99.90;;;;;;5098207;27;20381;-47
2022/12/31 08:07:44;;;;;;;2.55;1.20;;;11.50;99.90;;;;;;5120074;27;20138;-49
2022/12/31 08:10:24;;;;;;;3.05;1.90;;;11.50;99.90;;;;;;5119524;27;20111;-48
2022/12/31 08:12:54;;;;;;;3.08;1.88;;;11.50;99.90;;;;;;5102285;27;20481;-49
2022/12/31 08:15:20;;;;;;;2.03;1.58;;;11.50;99.90;;;;;;5111543;28;20588;-50
2022/12/31 08:17:46;;;;;;;2.17;1.63;;;11.50;99.90;;;;;;5092836;28;20118;-50
2022/12/31 08:20:15;;;;;;;1.60;1.50;;;11.50;99.90;;;;;;5111210;28;20027;-47
2022/12/31 08:23:04;;;;;;;2.30;1.48;;;11.50;99.90;;;;;;5112724;27;20531;-48
2022/12/31 08:26:01;;;;;;;3.70;2.50;;;11.50;99.90;;;;;;5105334;27;20019;-50
2022/12/31 08:28:49;;;;;;;3.35;2.63;;;11.50;99.90;;;;;;5130720;27;20023;-49
2022/12/31 08:31:18;;;;;;;2.88;2.13;;;11.50;99.90;;;;;;5130748;27;20023;-50
2022/12/31 08:34:25;;;;;;;2.28;1.50;;;11.50;99.90;;;;;;5124597;27;20027;-50
2022/12/31 08:37:14;;;;;;;3.55;1.67;;;11.50;99.90;;;;;;5017229;28;20104;-54
2022/12/31 08:39:55;;;;;;;2.10;1.88;;;11.50;99.90;;;;;;5103808;28;20397;-50
2022/12/31 08:43:00;;;;;;;1.75;1.52;;;11.50;99.90;;;;;;5109745;28;20026;-49
2022/12/31 08:45:37;;;;;;;3.40;2.25;;;11.50;99.90;;;;;;5094863;28;20062;-50
2022/12/31 08:48:22;;;;;;;4.45;3.38;;;11.50;99.90;;;;;;5110895;28;20023;-48
2022/12/31 08:50:48;;;;;;;5.88;3.33;;;11.50;99.90;;;;;;5110787;28;20143;-49
2022/12/31 08:53:13;;;;;;;3.63;3.00;;;11.50;99.90;;;;;;5110296;28;20557;-48
2022/12/31 08:55:42;;;;;;;4.82;3.60;;;11.60;99.90;;;;;;5110549;28;20035;-48
2022/12/31 08:58:18;;;;;;;5.22;4.10;;;11.60;99.90;;;;;;5110478;28;20035;-50
2022/12/31 09:00:52;;;;;;;5.25;4.10;;;11.60;99.90;;;;;;5110669;28;20058;-51
2022/12/31 09:03:49;;;;;;;5.18;3.72;;;11.60;99.90;;;;;;5110342;28;20359;-50
2022/12/31 09:06:32;;;;;;;4.72;3.17;;;11.60;99.90;;;;;;5091745;28;20590;-50
2022/12/31 09:09:37;;;;;;;4.22;3.20;;;11.60;99.90;;;;;;5113142;27;20023;-50
2022/12/31 09:12:15;;;;;;;6.13;2.40;;;11.60;99.90;;;;;;5118592;28;20042;-47
2022/12/31 09:14:46;;;;;;;2.17;1.90;;;11.80;99.90;;;;;;5102468;28;20026;-49
2022/12/31 09:17:32;;;;;;;2.53;1.80;;;11.90;99.90;;;;;;5125557;27;20077;-51
2022/12/31 09:19:58;;;;;;;3.38;1.60;;;12.00;99.90;;;;;;5129728;27;20370;-49
2022/12/31 09:22:23;;;;;;;2.17;1.70;;;12.00;99.90;;;;;;5121647;27;20016;-47
2022/12/31 09:24:49;;;;;;;2.55;1.63;;;12.10;99.90;;;;;;5134149;27;20441;-50
2022/12/31 09:27:26;;;;;;;2.35;1.85;;;12.10;99.90;;;;;;5115710;27;20027;-49
2022/12/31 09:30:06;;;;;;;2.13;1.88;;;12.10;99.90;;;;;;5133695;27;20106;-48
2022/12/31 09:32:46;;;;;;;1.95;1.40;;;12.10;99.90;;;;;;5133517;27;20393;-49
2022/12/31 09:35:29;;;;;;;4.47;2.00;;;12.20;99.90;;;;;;5116776;27;20024;-50
2022/12/31 09:38:13;;;;;;;6.68;3.20;;;12.30;99.90;;;;;;5113225;28;20031;-50
2022/12/31 09:41:00;;;;;;;7.82;3.10;;;12.30;99.90;;;;;;5113237;28;20028;-47
2022/12/31 09:43:42;;;;;;;3.40;2.45;;;12.30;99.90;;;;;;5112650;28;20019;-48
2022/12/31 09:46:23;;;;;;;4.32;3.03;;;12.30;99.90;;;;;;5120186;27;20016;-48
2022/12/31 09:49:13;;;;;;;3.75;2.42;;;12.30;99.90;;;;;;5125370;27;20118;-48
2022/12/31 09:51:59;;;;;;;3.88;2.35;;;12.20;99.90;;;;;;5133655;27;20513;-48
2022/12/31 09:54:53;;;;;;;2.50;2.17;;;12.30;99.90;;;;;;5133557;27;20027;-47
2022/12/31 09:57:26;;;;;;;2.75;2.13;;;12.20;99.90;;;;;;5133623;27;20023;-51
2022/12/31 10:00:03;;;;;;;6.03;3.03;;;12.20;99.90;;;;;;5133639;27;20550;-48
2022/12/31 10:02:58;;;;;;;7.18;2.90;;;12.20;99.90;;;;;;5132801;27;20031;-48
2022/12/31 10:05:42;;;;;;;4.60;3.00;;;12.30;99.90;;;;;;5114661;27;20016;-50
2022/12/31 10:08:46;;;;;;;5.65;3.58;;;12.30;99.90;;;;;;5112674;28;20050;-51
2022/12/31 10:11:30;;;;;;;7.65;3.10;;;12.40;99.90;;;;;;5113078;28;20341;-48
2022/12/31 10:14:18;;;;;;;4.63;3.30;;;12.50;99.90;;;;;;5112166;28;20549;-46
2022/12/31 10:17:26;;;;;;;10.43;3.58;;;12.70;99.90;;;;;;5112727;28;20398;-48
2022/12/31 10:20:26;;;;;;;5.25;3.33;;;12.80;99.90;;;;;;5112768;28;20478;-51
2022/12/31 10:23:07;;;;;;;7.43;4.03;;;12.80;99.90;;;;;;5076572;28;20125;-51
2022/12/31 10:25:45;;;;;;;7.03;2.78;;;12.80;99.90;;;;;;5094182;28;20481;-50
2022/12/31 10:28:28;;;;;;;3.92;2.20;;;12.90;99.90;;;;;;5112260;28;20076;-51
2022/12/31 10:31:18;;;;;;;5.05;2.25;;;13.00;99.90;;;;;;5111620;28;20046;-51
2022/12/31 10:34:01;;;;;;;6.32;2.90;;;13.10;99.90;;;;;;5093551;28;20469;-49
2022/12/31 10:36:43;;;;;;;5.30;2.88;;;13.10;99.90;;;;;;5113408;28;20416;-50
2022/12/31 10:39:39;;;;;;;12.90;4.82;;;13.10;99.90;;;;;;5113195;28;20024;-49
2022/12/31 10:42:37;;;;;;;7.03;3.08;;;13.20;99.90;;;;;;5112840;28;20024;-46
2022/12/31 10:45:31;;;;;;;12.48;4.40;;;13.40;99.90;;;;;;5114827;27;20394;-47
2022/12/31 10:48:05;;;;;;;7.07;3.30;;;13.40;99.90;;;;;;5120502;27;20027;-46
2022/12/31 10:50:47;;;;;;;4.20;3.00;;;13.70;99.90;;;;;;5121009;27;20106;-49
2022/12/31 10:53:51;;;;;;;10.60;2.60;;;13.80;99.90;;;;;;5118897;27;20031;-48
2022/12/31 10:56:42;;;;;;;6.60;2.75;;;13.90;99.90;;;;;;5117764;27;20405;-48
2022/12/31 10:59:32;;;;;;;11.23;7.80;;;13.80;99.90;;;;;;5118717;27;20031;-46
2022/12/31 11:02:18;;;;;;;8.55;5.22;;;13.80;99.90;;;;;;5116892;27;20435;-48
2022/12/31 11:05:10;;;;;;;6.15;3.90;;;13.70;99.90;;;;;;5097231;27;20039;-47
2022/12/31 11:07:55;;;;;;;6.75;3.63;;;13.80;99.90;;;;;;5121658;27;20024;-48
2022/12/31 11:10:58;;;;;;;8.93;3.40;;;13.80;99.90;;;;;;5104457;27;20026;-48
2022/12/31 11:13:37;;;;;;;5.57;2.53;;;13.70;99.90;;;;;;5120867;27;20100;-49
2022/12/31 11:16:06;;;;;;;6.13;2.63;;;13.80;99.90;;;;;;5118032;27;20134;-47
2022/12/31 11:19:07;;;;;;;3.13;1.92;;;13.70;99.90;;;;;;5122127;27;20027;-48
2022/12/31 11:21:57;;;;;;;8.88;2.20;;;13.60;99.90;;;;;;5073900;27;20538;-48
2022/12/31 11:25:05;;;;;;;7.93;2.10;;;13.60;99.90;;;;;;5119511;27;20069;-48
2022/12/31 11:28:08;;;;;;;5.38;2.15;;;13.70;99.90;;;;;;5104695;27;20110;-49
2022/12/31 11:31:07;;;;;;;8.80;4.57;;;13.70;99.90;;;;;;5118621;27;20633;-48
2022/12/31 11:33:57;;;;;;;6.85;2.83;;;13.70;99.90;;;;;;5088092;27;20159;-50
2022/12/31 11:36:51;;;;;;;3.88;2.03;;;13.70;99.90;;;;;;5097264;27;20102;-50
2022/12/31 11:39:38;;;;;;;4.68;2.00;;;13.70;99.90;;;;;;5103414;27;20024;-49
2022/12/31 11:42:19;;;;;;;1.85;1.65;;;13.80;99.90;;;;;;5118823;27;20046;-51
2022/12/31 11:44:54;;;;;;;;;;;13.80;99.90;;;;;;5121055;27;20026;-51
2022/12/31 11:47:37;;;;;;;3.83;1.02;;;13.90;99.90;;;;;;5119443;27;19910;-50
2022/12/31 11:50:12;;;;;;;1.67;1.08;;;14.00;99.90;;;;;;5119848;27;20156;-49
2022/12/31 11:52:50;;;;;;;2.60;0.80;;;14.50;99.90;;;;;;5118731;27;20019;-49
2022/12/31 11:55:51;;;;;;;2.17;0.90;;;14.70;99.90;;;;;;5119549;27;20106;-49
2022/12/31 11:58:27;;;;;;;1.27;0.70;;;15.00;99.90;;;;;;5121746;27;20031;-48
2022/12/31 12:01:03;;;;;;;2.25;0.77;;;15.40;99.90;;;;;;5120524;27;20076;-49
2022/12/31 12:03:30;;;;;;;1.73;0.90;;;15.50;99.90;;;;;;5108986;27;20100;-48
2022/12/31 12:05:56;;;;;;;1.42;0.52;;;15.60;99.90;;;;;;5097777;28;20209;-49
2022/12/31 12:08:24;;;;;;;0.98;0.60;;;15.60;99.90;;;;;;5098120;28;20073;-48
2022/12/31 12:10:57;;;;;;;2.97;1.17;;;15.70;99.90;;;;;;5099660;28;20103;-48
2022/12/31 12:13:25;;;;;;;1.27;0.73;;;15.80;99.90;;;;;;5089183;28;20057;-48
2022/12/31 12:15:57;;;;;;;1.55;0.80;;;15.80;99.90;;;;;;5089599;28;20028;-47
2022/12/31 12:18:35;;;;;;;2.58;1.00;;;15.90;99.90;;;;;;5089897;28;20028;-48
2022/12/31 12:21:07;;;;;;;1.02;0.70;;;15.80;99.90;;;;;;5078254;28;20028;-44
2022/12/31 12:23:32;;;;;;;4.90;1.05;;;15.80;99.90;;;;;;5089197;28;20028;-48
2022/12/31 12:25:58;;;;;;;4.10;1.30;;;15.60;99.90;;;;;;5089405;28;20040;-44
2022/12/31 12:28:27;;;;;;;3.10;1.15;;;15.50;99.90;;;;;;5089732;28;20525;-45
2022/12/31 12:31:03;;;;;;;1.48;0.85;;;15.40;99.90;;;;;;5071030;28;20016;-44
2022/12/31 12:33:43;;;;;;;5.25;1.52;;;15.40;99.90;;;;;;5090602;28;20020;-44
2022/12/31 12:36:11;;;;;;;1.63;0.90;;;15.40;99.90;;;;;;5090691;28;20027;-44
2022/12/31 12:38:37;;;;;;;2.35;0.90;;;15.40;99.90;;;;;;5091296;28;20039;-44
2022/12/31 12:41:05;;;;;;;6.63;1.15;;;15.40;99.90;;;;;;5091410;28;20058;-44
2022/12/31 12:43:36;;;;;;;2.05;1.08;;;15.30;99.90;;;;;;5090996;28;20062;-44
2022/12/31 12:46:06;;;;;;;;;;;15.30;99.90;;;;;;5089861;28;20050;-44
2022/12/31 12:48:39;;;;;;;2.55;1.23;;;15.30;99.90;;;;;;5093019;28;19977;-45
2022/12/31 12:51:41;;;;;;;2.65;1.20;;;15.30;99.90;;;;;;5089056;28;20024;-45
2022/12/31 12:54:26;;;;;;;3.45;1.60;;;15.30;99.90;;;;;;5091795;28;20058;-49
2022/12/31 12:57:19;;;;;;;2.83;1.55;;;15.30;99.90;;;;;;5089323;28;20374;-48
2022/12/31 13:00:03;;;;;;;3.83;1.27;;;15.30;99.90;;;;;;5089676;28;20028;-49
2022/12/31 13:02:52;;;;;;;1.85;1.00;;;15.40;99.90;;;;;;5088745;28;20031;-49
2022/12/31 13:05:50;;;;;;;2.10;1.13;;;15.40;99.90;;;;;;5089126;28;20378;-51
2022/12/31 13:09:01;;;;;;;2.53;1.10;;;15.50;99.90;;;;;;5088820;28;20479;-44
2022/12/31 13:11:27;;;;;;;2.08;1.00;;;15.60;99.90;;;;;;5095676;28;20043;-44
2022/12/31 13:14:31;;;;;;;1.92;0.98;;;15.80;99.90;;;;;;5050303;28;20498;-48
2022/12/31 13:17:27;;;;;;;1.45;1.00;;;16.00;99.90;;;;;;5079911;28;20031;-44
2022/12/31 13:20:03;;;;;;;2.65;0.90;;;16.10;99.90;;;;;;5087893;28;20067;-45
2022/12/31 13:22:51;;;;;;;2.58;0.90;;;16.10;99.90;;;;;;5068436;28;20134;-44
2022/12/31 13:25:28;;;;;;;1.80;0.88;;;16.10;99.90;;;;;;5067559;28;20169;-44
2022/12/31 13:28:01;;;;;;;2.95;1.10;;;16.20;99.90;;;;;;5084276;28;20023;-44
2022/12/31 13:30:37;;;;;;;2.85;1.25;;;16.30;99.90;;;;;;5087870;28;20052;-45
2022/12/31 13:33:19;;;;;;;1.83;0.98;;;16.30;99.90;;;;;;5086996;28;20016;-45
2022/12/31 13:35:47;;;;;;;3.58;1.55;;;16.40;99.90;;;;;;5067889;28;20546;-44